sensor_id;sensor_type;location;lat;lon;timestamp;P1;durP1;ratioP1;P2;durP2;ratioP2
8861;SDS011;4799;50.996;4.754;2023-02-19T00:01:28;13.90;;;11.07;;
8861;SDS011;4799;50.996;4.754;2023-02-19T00:04:00;14.17;;;11.27;;
8861;SDS011;4799;50.996;4.754;2023-02-19T00:06:27;12.70;;;11.40;;
8861;SDS011;4799;50.996;4.754;2023-02-19T00:08:54;13.13;;;11.30;;
8861;SDS011;4799;50.996;4.754;2023-02-19T00:11:22;12.93;;;10.67;;
8861;SDS011;4799;50.996;4.754;2023-02-19T00:13:50;12.33;;;10.60;;
8861;SDS011;4799;50.996;4.754;2023-02-19T00:16:21;15.43;;;11.70;;
8861;SDS011;4799;50.996;4.754;2023-02-19T00:18:59;13.77;;;10.53;;
8861;SDS011;4799;50.996;4.754;2023-02-19T00:21:26;11.17;;;9.93;;
8861;SDS011;4799;50.996;4.754;2023-02-19T00:23:53;12.07;;;10.00;;
8861;SDS011;4799;50.996;4.754;2023-02-19T00:26:21;11.80;;;10.60;;
8861;SDS011;4799;50.996;4.754;2023-02-19T00:28:47;11.17;;;10.00;;
8861;SDS011;4799;50.996;4.754;2023-02-19T00:33:43;11.93;;;9.70;;
8861;SDS011;4799;50.996;4.754;2023-02-19T00:36:09;15.00;;;12.03;;
8861;SDS011;4799;50.996;4.754;2023-02-19T00:38:36;12.73;;;10.60;;
8861;SDS011;4799;50.996;4.754;2023-02-19T00:41:03;11.77;;;10.57;;
8861;SDS011;4799;50.996;4.754;2023-02-19T00:46:39;12.90;;;11.30;;
8861;SDS011;4799;50.996;4.754;2023-02-19T00:49:07;13.13;;;11.57;;
8861;SDS011;4799;50.996;4.754;2023-02-19T00:51:40;14.50;;;12.37;;
8861;SDS011;4799;50.996;4.754;2023-02-19T00:54:06;16.50;;;12.97;;
8861;SDS011;4799;50.996;4.754;2023-02-19T00:56:32;15.03;;;12.50;;
8861;SDS011;4799;50.996;4.754;2023-02-19T00:58:58;14.37;;;12.87;;
8861;SDS011;4799;50.996;4.754;2023-02-19T01:01:24;17.43;;;12.80;;
8861;SDS011;4799;50.996;4.754;2023-02-19T01:03:49;18.03;;;14.20;;
8861;SDS011;4799;50.996;4.754;2023-02-19T01:06:16;18.27;;;13.70;;
8861;SDS011;4799;50.996;4.754;2023-02-19T01:08:43;17.23;;;14.57;;
8861;SDS011;4799;50.996;4.754;2023-02-19T01:11:09;17.77;;;14.00;;
8861;SDS011;4799;50.996;4.754;2023-02-19T01:13:35;16.87;;;13.73;;
8861;SDS011;4799;50.996;4.754;2023-02-19T01:16:05;17.77;;;13.57;;
8861;SDS011;4799;50.996;4.754;2023-02-19T01:18:32;15.63;;;14.03;;
8861;SDS011;4799;50.996;4.754;2023-02-19T01:20:58;16.70;;;14.17;;
8861;SDS011;4799;50.996;4.754;2023-02-19T01:23:24;15.03;;;13.47;;
8861;SDS011;4799;50.996;4.754;2023-02-19T01:25:50;16.67;;;12.93;;
8861;SDS011;4799;50.996;4.754;2023-02-19T01:28:15;15.60;;;13.83;;
8861;SDS011;4799;50.996;4.754;2023-02-19T01:30:41;14.67;;;13.07;;
8861;SDS011;4799;50.996;4.754;2023-02-19T01:33:07;15.27;;;13.00;;
8861;SDS011;4799;50.996;4.754;2023-02-19T01:35:37;14.83;;;12.83;;
8861;SDS011;4799;50.996;4.754;2023-02-19T01:38:03;15.27;;;13.57;;
8861;SDS011;4799;50.996;4.754;2023-02-19T01:40:31;18.43;;;13.07;;
8861;SDS011;4799;50.996;4.754;2023-02-19T01:42:57;16.43;;;12.90;;
8861;SDS011;4799;50.996;4.754;2023-02-19T01:45:27;13.90;;;12.07;;
8861;SDS011;4799;50.996;4.754;2023-02-19T01:48:06;16.50;;;12.37;;
8861;SDS011;4799;50.996;4.754;2023-02-19T01:50:36;16.40;;;11.50;;
8861;SDS011;4799;50.996;4.754;2023-02-19T01:53:06;14.67;;;11.37;;
8861;SDS011;4799;50.996;4.754;2023-02-19T01:55:35;16.60;;;10.57;;
8861;SDS011;4799;50.996;4.754;2023-02-19T01:58:01;14.40;;;11.07;;
8861;SDS011;4799;50.996;4.754;2023-02-19T02:00:28;14.20;;;10.40;;
8861;SDS011;4799;50.996;4.754;2023-02-19T02:02:55;14.83;;;10.33;;
8861;SDS011;4799;50.996;4.754;2023-02-19T02:06:06;12.53;;;9.50;;
8861;SDS011;4799;50.996;4.754;2023-02-19T02:08:23;14.23;;;9.10;;
8861;SDS011;4799;50.996;4.754;2023-02-19T02:11:22;12.07;;;8.80;;
8861;SDS011;4799;50.996;4.754;2023-02-19T02:13:49;11.03;;;8.17;;
8861;SDS011;4799;50.996;4.754;2023-02-19T02:21:52;13.83;;;8.27;;
8861;SDS011;4799;50.996;4.754;2023-02-19T02:33:02;12.43;;;6.63;;
8861;SDS011;4799;50.996;4.754;2023-02-19T02:35:50;13.20;;;6.50;;
8861;SDS011;4799;50.996;4.754;2023-02-19T02:38:21;9.30;;;5.10;;
8861;SDS011;4799;50.996;4.754;2023-02-19T02:40:51;9.60;;;5.27;;
8861;SDS011;4799;50.996;4.754;2023-02-19T02:43:19;10.80;;;4.97;;
8861;SDS011;4799;50.996;4.754;2023-02-19T02:45:44;8.50;;;4.67;;
8861;SDS011;4799;50.996;4.754;2023-02-19T02:48:15;8.10;;;4.33;;
8861;SDS011;4799;50.996;4.754;2023-02-19T02:51:13;8.03;;;4.63;;
8861;SDS011;4799;50.996;4.754;2023-02-19T02:56:54;10.67;;;4.17;;
8861;SDS011;4799;50.996;4.754;2023-02-19T02:59:23;8.97;;;4.00;;
8861;SDS011;4799;50.996;4.754;2023-02-19T03:07:35;9.50;;;3.93;;
8861;SDS011;4799;50.996;4.754;2023-02-19T03:11:18;6.40;;;3.83;;
8861;SDS011;4799;50.996;4.754;2023-02-19T03:13:17;8.43;;;3.87;;
8861;SDS011;4799;50.996;4.754;2023-02-19T03:16:13;12.50;;;4.20;;
8861;SDS011;4799;50.996;4.754;2023-02-19T03:19:03;11.63;;;4.10;;
8861;SDS011;4799;50.996;4.754;2023-02-19T03:24:36;7.43;;;3.40;;
8861;SDS011;4799;50.996;4.754;2023-02-19T03:27:26;7.83;;;3.60;;
8861;SDS011;4799;50.996;4.754;2023-02-19T03:29:53;7.57;;;3.30;;
8861;SDS011;4799;50.996;4.754;2023-02-19T03:32:23;8.50;;;3.80;;
8861;SDS011;4799;50.996;4.754;2023-02-19T03:35:20;12.50;;;3.80;;
8861;SDS011;4799;50.996;4.754;2023-02-19T03:37:56;9.90;;;3.90;;
8861;SDS011;4799;50.996;4.754;2023-02-19T03:40:50;8.90;;;3.60;;
8861;SDS011;4799;50.996;4.754;2023-02-19T03:46:43;7.07;;;3.20;;
8861;SDS011;4799;50.996;4.754;2023-02-19T03:49:23;7.83;;;3.27;;
8861;SDS011;4799;50.996;4.754;2023-02-19T03:54:38;11.47;;;3.27;;
8861;SDS011;4799;50.996;4.754;2023-02-19T03:57:33;9.47;;;3.27;;
8861;SDS011;4799;50.996;4.754;2023-02-19T04:00:10;9.50;;;3.63;;
8861;SDS011;4799;50.996;4.754;2023-02-19T04:02:43;10.27;;;3.30;;
8861;SDS011;4799;50.996;4.754;2023-02-19T04:05:31;6.80;;;2.80;;
8861;SDS011;4799;50.996;4.754;2023-02-19T04:08:19;10.03;;;3.20;;
8861;SDS011;4799;50.996;4.754;2023-02-19T04:10:47;10.23;;;3.27;;
8861;SDS011;4799;50.996;4.754;2023-02-19T04:13:24;7.53;;;2.87;;
8861;SDS011;4799;50.996;4.754;2023-02-19T04:15:54;8.07;;;2.80;;
8861;SDS011;4799;50.996;4.754;2023-02-19T04:18:25;10.10;;;3.47;;
8861;SDS011;4799;50.996;4.754;2023-02-19T04:20:55;10.70;;;3.17;;
8861;SDS011;4799;50.996;4.754;2023-02-19T04:23:24;9.70;;;3.40;;
8861;SDS011;4799;50.996;4.754;2023-02-19T04:25:53;8.70;;;3.13;;
8861;SDS011;4799;50.996;4.754;2023-02-19T04:28:22;10.53;;;3.23;;
8861;SDS011;4799;50.996;4.754;2023-02-19T04:30:48;7.73;;;2.87;;
8861;SDS011;4799;50.996;4.754;2023-02-19T04:33:14;9.77;;;3.00;;
8861;SDS011;4799;50.996;4.754;2023-02-19T04:35:39;8.00;;;3.07;;
8861;SDS011;4799;50.996;4.754;2023-02-19T04:38:05;9.60;;;2.97;;
8861;SDS011;4799;50.996;4.754;2023-02-19T04:40:31;7.87;;;3.03;;
8861;SDS011;4799;50.996;4.754;2023-02-19T04:42:57;8.10;;;3.03;;
8861;SDS011;4799;50.996;4.754;2023-02-19T04:45:22;9.93;;;3.07;;
8861;SDS011;4799;50.996;4.754;2023-02-19T04:47:48;9.70;;;3.37;;
8861;SDS011;4799;50.996;4.754;2023-02-19T04:50:14;9.00;;;3.10;;
8861;SDS011;4799;50.996;4.754;2023-02-19T04:52:39;10.50;;;3.10;;
8861;SDS011;4799;50.996;4.754;2023-02-19T04:55:05;9.03;;;3.00;;
8861;SDS011;4799;50.996;4.754;2023-02-19T04:57:32;10.23;;;3.10;;
8861;SDS011;4799;50.996;4.754;2023-02-19T04:59:59;8.20;;;3.13;;
8861;SDS011;4799;50.996;4.754;2023-02-19T05:02:25;12.13;;;3.53;;
8861;SDS011;4799;50.996;4.754;2023-02-19T05:04:51;8.40;;;2.80;;
8861;SDS011;4799;50.996;4.754;2023-02-19T05:07:17;9.37;;;3.50;;
8861;SDS011;4799;50.996;4.754;2023-02-19T05:09:42;10.87;;;3.07;;
8861;SDS011;4799;50.996;4.754;2023-02-19T05:12:08;11.33;;;3.70;;
8861;SDS011;4799;50.996;4.754;2023-02-19T05:14:34;9.67;;;3.07;;
8861;SDS011;4799;50.996;4.754;2023-02-19T05:16:59;11.57;;;3.10;;
8861;SDS011;4799;50.996;4.754;2023-02-19T05:19:25;9.90;;;3.47;;
8861;SDS011;4799;50.996;4.754;2023-02-19T05:21:51;11.60;;;3.20;;
8861;SDS011;4799;50.996;4.754;2023-02-19T05:24:17;10.00;;;3.40;;
8861;SDS011;4799;50.996;4.754;2023-02-19T05:26:43;10.33;;;3.00;;
8861;SDS011;4799;50.996;4.754;2023-02-19T05:29:08;12.83;;;3.70;;
8861;SDS011;4799;50.996;4.754;2023-02-19T05:31:35;10.93;;;3.50;;
8861;SDS011;4799;50.996;4.754;2023-02-19T05:34:01;8.87;;;3.20;;
8861;SDS011;4799;50.996;4.754;2023-02-19T05:36:27;10.87;;;3.30;;
8861;SDS011;4799;50.996;4.754;2023-02-19T05:38:53;12.20;;;3.53;;
8861;SDS011;4799;50.996;4.754;2023-02-19T05:41:24;9.93;;;3.10;;
8861;SDS011;4799;50.996;4.754;2023-02-19T05:43:52;9.43;;;3.30;;
8861;SDS011;4799;50.996;4.754;2023-02-19T05:46:20;10.83;;;3.10;;
8861;SDS011;4799;50.996;4.754;2023-02-19T05:48:51;11.20;;;3.40;;
8861;SDS011;4799;50.996;4.754;2023-02-19T05:51:18;10.20;;;3.37;;
8861;SDS011;4799;50.996;4.754;2023-02-19T05:53:46;8.53;;;3.43;;
8861;SDS011;4799;50.996;4.754;2023-02-19T05:58:50;9.97;;;3.20;;
8861;SDS011;4799;50.996;4.754;2023-02-19T06:01:18;11.67;;;3.60;;
8861;SDS011;4799;50.996;4.754;2023-02-19T06:03:45;11.00;;;3.43;;
8861;SDS011;4799;50.996;4.754;2023-02-19T06:06:14;13.30;;;3.67;;
8861;SDS011;4799;50.996;4.754;2023-02-19T06:08:41;9.43;;;2.73;;
8861;SDS011;4799;50.996;4.754;2023-02-19T06:11:07;12.43;;;3.57;;
8861;SDS011;4799;50.996;4.754;2023-02-19T06:13:33;11.70;;;3.87;;
8861;SDS011;4799;50.996;4.754;2023-02-19T06:16:02;9.13;;;3.20;;
8861;SDS011;4799;50.996;4.754;2023-02-19T06:18:28;9.87;;;3.30;;
8861;SDS011;4799;50.996;4.754;2023-02-19T06:20:59;9.57;;;3.07;;
8861;SDS011;4799;50.996;4.754;2023-02-19T06:23:26;9.50;;;3.40;;
8861;SDS011;4799;50.996;4.754;2023-02-19T06:25:53;11.90;;;3.93;;
8861;SDS011;4799;50.996;4.754;2023-02-19T06:28:19;13.13;;;3.50;;
8861;SDS011;4799;50.996;4.754;2023-02-19T06:30:45;10.23;;;3.00;;
8861;SDS011;4799;50.996;4.754;2023-02-19T06:33:11;13.80;;;3.33;;
8861;SDS011;4799;50.996;4.754;2023-02-19T06:35:36;10.73;;;3.40;;
8861;SDS011;4799;50.996;4.754;2023-02-19T06:38:02;11.03;;;3.33;;
8861;SDS011;4799;50.996;4.754;2023-02-19T06:40:28;11.13;;;3.60;;
8861;SDS011;4799;50.996;4.754;2023-02-19T06:42:53;12.43;;;3.50;;
8861;SDS011;4799;50.996;4.754;2023-02-19T06:45:19;12.00;;;3.57;;
8861;SDS011;4799;50.996;4.754;2023-02-19T06:47:45;12.03;;;3.43;;
8861;SDS011;4799;50.996;4.754;2023-02-19T06:50:11;12.63;;;3.47;;
8861;SDS011;4799;50.996;4.754;2023-02-19T06:52:36;11.17;;;3.30;;
8861;SDS011;4799;50.996;4.754;2023-02-19T06:55:02;9.70;;;3.30;;
8861;SDS011;4799;50.996;4.754;2023-02-19T06:57:28;11.73;;;3.90;;
8861;SDS011;4799;50.996;4.754;2023-02-19T06:59:54;10.60;;;3.03;;
8861;SDS011;4799;50.996;4.754;2023-02-19T07:02:19;9.00;;;3.33;;
8861;SDS011;4799;50.996;4.754;2023-02-19T07:04:45;11.27;;;2.93;;
8861;SDS011;4799;50.996;4.754;2023-02-19T07:07:11;9.07;;;3.17;;
8861;SDS011;4799;50.996;4.754;2023-02-19T07:09:36;10.80;;;3.30;;
8861;SDS011;4799;50.996;4.754;2023-02-19T07:12:02;15.07;;;3.70;;
8861;SDS011;4799;50.996;4.754;2023-02-19T07:14:28;11.67;;;3.63;;
8861;SDS011;4799;50.996;4.754;2023-02-19T07:16:54;12.43;;;3.50;;
8861;SDS011;4799;50.996;4.754;2023-02-19T07:19:20;9.80;;;3.27;;
8861;SDS011;4799;50.996;4.754;2023-02-19T07:21:46;9.90;;;3.13;;
8861;SDS011;4799;50.996;4.754;2023-02-19T07:24:11;9.63;;;2.87;;
8861;SDS011;4799;50.996;4.754;2023-02-19T07:26:37;11.73;;;3.37;;
8861;SDS011;4799;50.996;4.754;2023-02-19T07:29:04;11.30;;;3.47;;
8861;SDS011;4799;50.996;4.754;2023-02-19T07:31:31;10.10;;;3.20;;
8861;SDS011;4799;50.996;4.754;2023-02-19T07:33:57;10.73;;;3.40;;
8861;SDS011;4799;50.996;4.754;2023-02-19T07:36:23;9.63;;;3.37;;
8861;SDS011;4799;50.996;4.754;2023-02-19T07:38:53;9.53;;;3.20;;
8861;SDS011;4799;50.996;4.754;2023-02-19T07:41:20;9.67;;;3.17;;
8861;SDS011;4799;50.996;4.754;2023-02-19T07:43:47;9.50;;;3.37;;
8861;SDS011;4799;50.996;4.754;2023-02-19T07:46:13;9.37;;;3.10;;
8861;SDS011;4799;50.996;4.754;2023-02-19T07:48:39;9.77;;;3.60;;
8861;SDS011;4799;50.996;4.754;2023-02-19T07:51:07;10.43;;;3.17;;
8861;SDS011;4799;50.996;4.754;2023-02-19T07:53:36;11.20;;;3.13;;
8861;SDS011;4799;50.996;4.754;2023-02-19T07:56:03;10.50;;;3.33;;
8861;SDS011;4799;50.996;4.754;2023-02-19T07:58:30;9.73;;;3.50;;
8861;SDS011;4799;50.996;4.754;2023-02-19T08:00:56;9.50;;;3.20;;
8861;SDS011;4799;50.996;4.754;2023-02-19T08:03:22;8.77;;;3.03;;
8861;SDS011;4799;50.996;4.754;2023-02-19T08:05:48;9.30;;;3.47;;
8861;SDS011;4799;50.996;4.754;2023-02-19T08:08:15;9.33;;;3.23;;
8861;SDS011;4799;50.996;4.754;2023-02-19T08:10:41;12.47;;;3.67;;
8861;SDS011;4799;50.996;4.754;2023-02-19T08:13:26;10.10;;;3.53;;
8861;SDS011;4799;50.996;4.754;2023-02-19T08:18:26;10.03;;;3.50;;
8861;SDS011;4799;50.996;4.754;2023-02-19T08:20:54;10.23;;;3.50;;
8861;SDS011;4799;50.996;4.754;2023-02-19T08:23:20;8.83;;;3.50;;
8861;SDS011;4799;50.996;4.754;2023-02-19T08:25:46;11.33;;;3.53;;
8861;SDS011;4799;50.996;4.754;2023-02-19T08:28:13;10.03;;;3.00;;
8861;SDS011;4799;50.996;4.754;2023-02-19T08:30:39;11.33;;;3.57;;
8861;SDS011;4799;50.996;4.754;2023-02-19T08:33:09;9.50;;;3.20;;
8861;SDS011;4799;50.996;4.754;2023-02-19T08:35:35;8.30;;;3.67;;
8861;SDS011;4799;50.996;4.754;2023-02-19T08:38:02;9.57;;;3.30;;
8861;SDS011;4799;50.996;4.754;2023-02-19T08:40:29;9.83;;;3.33;;
8861;SDS011;4799;50.996;4.754;2023-02-19T08:42:54;7.97;;;2.97;;
8861;SDS011;4799;50.996;4.754;2023-02-19T08:45:20;11.33;;;3.60;;
8861;SDS011;4799;50.996;4.754;2023-02-19T08:47:48;8.93;;;3.20;;
8861;SDS011;4799;50.996;4.754;2023-02-19T08:50:14;9.53;;;3.17;;
8861;SDS011;4799;50.996;4.754;2023-02-19T08:52:39;11.20;;;3.40;;
8861;SDS011;4799;50.996;4.754;2023-02-19T08:55:05;10.43;;;3.43;;
8861;SDS011;4799;50.996;4.754;2023-02-19T08:57:34;9.37;;;2.60;;
8861;SDS011;4799;50.996;4.754;2023-02-19T09:00:02;8.90;;;2.97;;
8861;SDS011;4799;50.996;4.754;2023-02-19T09:02:28;7.13;;;3.10;;
8861;SDS011;4799;50.996;4.754;2023-02-19T09:04:55;8.37;;;3.40;;
8861;SDS011;4799;50.996;4.754;2023-02-19T09:07:21;8.83;;;3.20;;
8861;SDS011;4799;50.996;4.754;2023-02-19T09:09:47;11.00;;;3.30;;
8861;SDS011;4799;50.996;4.754;2023-02-19T09:12:13;11.87;;;3.40;;
8861;SDS011;4799;50.996;4.754;2023-02-19T09:14:39;9.40;;;3.27;;
8861;SDS011;4799;50.996;4.754;2023-02-19T09:17:05;11.27;;;3.30;;
8861;SDS011;4799;50.996;4.754;2023-02-19T09:19:32;7.50;;;3.60;;
8861;SDS011;4799;50.996;4.754;2023-02-19T09:21:58;9.87;;;3.30;;
8861;SDS011;4799;50.996;4.754;2023-02-19T09:24:24;9.23;;;3.50;;
8861;SDS011;4799;50.996;4.754;2023-02-19T09:26:51;10.03;;;3.63;;
8861;SDS011;4799;50.996;4.754;2023-02-19T09:29:17;8.03;;;3.27;;
8861;SDS011;4799;50.996;4.754;2023-02-19T09:31:44;9.10;;;3.70;;
8861;SDS011;4799;50.996;4.754;2023-02-19T09:34:09;8.37;;;3.00;;
8861;SDS011;4799;50.996;4.754;2023-02-19T09:36:36;8.03;;;3.20;;
8861;SDS011;4799;50.996;4.754;2023-02-19T09:39:03;10.73;;;3.80;;
8861;SDS011;4799;50.996;4.754;2023-02-19T09:44:29;10.90;;;3.87;;
8861;SDS011;4799;50.996;4.754;2023-02-19T09:46:59;8.20;;;3.20;;
8861;SDS011;4799;50.996;4.754;2023-02-19T09:49:35;10.57;;;3.80;;
8861;SDS011;4799;50.996;4.754;2023-02-19T09:55:50;10.80;;;3.53;;
8861;SDS011;4799;50.996;4.754;2023-02-19T09:58:51;8.87;;;3.60;;
8861;SDS011;4799;50.996;4.754;2023-02-19T10:01:09;8.27;;;3.70;;
8861;SDS011;4799;50.996;4.754;2023-02-19T10:03:37;9.50;;;3.80;;
8861;SDS011;4799;50.996;4.754;2023-02-19T10:06:10;10.23;;;3.83;;
8861;SDS011;4799;50.996;4.754;2023-02-19T10:08:44;9.70;;;4.07;;
8861;SDS011;4799;50.996;4.754;2023-02-19T10:11:12;10.37;;;4.20;;
8861;SDS011;4799;50.996;4.754;2023-02-19T10:13:48;10.00;;;4.30;;
8861;SDS011;4799;50.996;4.754;2023-02-19T10:16:27;8.60;;;3.77;;
8861;SDS011;4799;50.996;4.754;2023-02-19T10:18:53;11.13;;;4.37;;
8861;SDS011;4799;50.996;4.754;2023-02-19T10:21:24;9.57;;;4.23;;
8861;SDS011;4799;50.996;4.754;2023-02-19T10:23:52;8.50;;;4.07;;
8861;SDS011;4799;50.996;4.754;2023-02-19T10:26:22;10.40;;;4.90;;
8861;SDS011;4799;50.996;4.754;2023-02-19T10:28:48;9.53;;;4.60;;
8861;SDS011;4799;50.996;4.754;2023-02-19T10:31:18;7.83;;;4.33;;
8861;SDS011;4799;50.996;4.754;2023-02-19T10:33:50;10.40;;;4.77;;
8861;SDS011;4799;50.996;4.754;2023-02-19T10:36:30;10.83;;;5.20;;
8861;SDS011;4799;50.996;4.754;2023-02-19T10:39:01;12.50;;;5.87;;
8861;SDS011;4799;50.996;4.754;2023-02-19T10:41:50;13.33;;;6.33;;
8861;SDS011;4799;50.996;4.754;2023-02-19T10:44:23;11.30;;;5.83;;
8861;SDS011;4799;50.996;4.754;2023-02-19T10:46:54;12.03;;;6.23;;
8861;SDS011;4799;50.996;4.754;2023-02-19T10:49:30;8.73;;;5.80;;
8861;SDS011;4799;50.996;4.754;2023-02-19T10:52:19;8.90;;;5.77;;
8861;SDS011;4799;50.996;4.754;2023-02-19T10:54:49;11.87;;;6.00;;
8861;SDS011;4799;50.996;4.754;2023-02-19T10:59:49;9.00;;;5.97;;
8861;SDS011;4799;50.996;4.754;2023-02-19T11:02:18;10.30;;;5.73;;
8861;SDS011;4799;50.996;4.754;2023-02-19T11:05:01;10.20;;;6.07;;
8861;SDS011;4799;50.996;4.754;2023-02-19T11:07:33;9.03;;;5.37;;
8861;SDS011;4799;50.996;4.754;2023-02-19T11:10:01;7.63;;;5.10;;
8861;SDS011;4799;50.996;4.754;2023-02-19T11:12:29;9.67;;;5.63;;
8861;SDS011;4799;50.996;4.754;2023-02-19T11:17:54;10.67;;;5.57;;
8861;SDS011;4799;50.996;4.754;2023-02-19T11:20:22;8.87;;;5.43;;
8861;SDS011;4799;50.996;4.754;2023-02-19T11:22:49;9.13;;;5.67;;
8861;SDS011;4799;50.996;4.754;2023-02-19T11:30:45;12.27;;;6.40;;
8861;SDS011;4799;50.996;4.754;2023-02-19T11:35:40;9.33;;;5.00;;
8861;SDS011;4799;50.996;4.754;2023-02-19T11:38:07;8.30;;;4.90;;
8861;SDS011;4799;50.996;4.754;2023-02-19T11:40:39;9.97;;;4.63;;
8861;SDS011;4799;50.996;4.754;2023-02-19T11:49:06;10.53;;;6.60;;
8861;SDS011;4799;50.996;4.754;2023-02-19T11:57:30;8.03;;;4.30;;
8861;SDS011;4799;50.996;4.754;2023-02-19T12:00:47;9.93;;;4.10;;
8861;SDS011;4799;50.996;4.754;2023-02-19T12:03:03;7.23;;;4.00;;
8861;SDS011;4799;50.996;4.754;2023-02-19T12:16:47;8.33;;;6.20;;
8861;SDS011;4799;50.996;4.754;2023-02-19T12:30:30;11.50;;;6.90;;
8861;SDS011;4799;50.996;4.754;2023-02-19T12:33:19;10.67;;;7.03;;
8861;SDS011;4799;50.996;4.754;2023-02-19T12:38:44;8.83;;;6.00;;
8861;SDS011;4799;50.996;4.754;2023-02-19T12:41:19;9.47;;;6.37;;
8861;SDS011;4799;50.996;4.754;2023-02-19T12:43:57;6.53;;;5.00;;
8861;SDS011;4799;50.996;4.754;2023-02-19T12:46:32;7.20;;;5.23;;
8861;SDS011;4799;50.996;4.754;2023-02-19T12:51:44;11.17;;;5.00;;
8861;SDS011;4799;50.996;4.754;2023-02-19T12:54:24;8.30;;;5.30;;
8861;SDS011;4799;50.996;4.754;2023-02-19T12:59:45;8.40;;;5.37;;
8861;SDS011;4799;50.996;4.754;2023-02-19T13:05:01;9.23;;;5.43;;
8861;SDS011;4799;50.996;4.754;2023-02-19T13:07:44;7.63;;;4.77;;
8861;SDS011;4799;50.996;4.754;2023-02-19T13:10:27;8.20;;;5.33;;
8861;SDS011;4799;50.996;4.754;2023-02-19T13:13:05;7.03;;;4.70;;
8861;SDS011;4799;50.996;4.754;2023-02-19T13:15:37;6.33;;;4.37;;
8861;SDS011;4799;50.996;4.754;2023-02-19T13:18:15;6.30;;;3.93;;
8861;SDS011;4799;50.996;4.754;2023-02-19T13:20:48;6.93;;;4.40;;
8861;SDS011;4799;50.996;4.754;2023-02-19T13:34:49;7.43;;;4.17;;
8861;SDS011;4799;50.996;4.754;2023-02-19T13:37:30;4.93;;;4.07;;
8861;SDS011;4799;50.996;4.754;2023-02-19T13:39:58;5.70;;;4.10;;
8861;SDS011;4799;50.996;4.754;2023-02-19T13:42:51;6.57;;;3.93;;
8861;SDS011;4799;50.996;4.754;2023-02-19T13:45:25;7.00;;;3.37;;
8861;SDS011;4799;50.996;4.754;2023-02-19T13:50:48;4.47;;;3.30;;
8861;SDS011;4799;50.996;4.754;2023-02-19T13:58:58;5.57;;;3.00;;
8861;SDS011;4799;50.996;4.754;2023-02-19T14:14:38;4.80;;;2.90;;
8861;SDS011;4799;50.996;4.754;2023-02-19T14:27:51;4.90;;;2.77;;
8861;SDS011;4799;50.996;4.754;2023-02-19T14:30:18;3.70;;;2.53;;
8861;SDS011;4799;50.996;4.754;2023-02-19T14:32:47;3.87;;;2.83;;
8861;SDS011;4799;50.996;4.754;2023-02-19T14:35:18;5.10;;;2.57;;
8861;SDS011;4799;50.996;4.754;2023-02-19T14:37:49;4.33;;;2.50;;
8861;SDS011;4799;50.996;4.754;2023-02-19T14:40:37;3.73;;;2.50;;
8861;SDS011;4799;50.996;4.754;2023-02-19T14:43:05;5.27;;;2.70;;
8861;SDS011;4799;50.996;4.754;2023-02-19T14:45:42;3.13;;;2.43;;
8861;SDS011;4799;50.996;4.754;2023-02-19T14:48:16;3.03;;;2.47;;
8861;SDS011;4799;50.996;4.754;2023-02-19T14:50:46;4.60;;;2.40;;
8861;SDS011;4799;50.996;4.754;2023-02-19T14:53:14;4.27;;;2.60;;
8861;SDS011;4799;50.996;4.754;2023-02-19T14:55:41;3.40;;;2.30;;
8861;SDS011;4799;50.996;4.754;2023-02-19T14:58:11;3.20;;;2.33;;
8861;SDS011;4799;50.996;4.754;2023-02-19T15:00:41;3.87;;;3.00;;
8861;SDS011;4799;50.996;4.754;2023-02-19T15:03:30;3.70;;;2.80;;
8861;SDS011;4799;50.996;4.754;2023-02-19T15:06:04;3.13;;;2.30;;
8861;SDS011;4799;50.996;4.754;2023-02-19T15:08:37;2.67;;;2.27;;
8861;SDS011;4799;50.996;4.754;2023-02-19T15:11:07;3.00;;;2.53;;
8861;SDS011;4799;50.996;4.754;2023-02-19T15:13:36;4.60;;;2.40;;
8861;SDS011;4799;50.996;4.754;2023-02-19T15:16:09;4.23;;;2.57;;
8861;SDS011;4799;50.996;4.754;2023-02-19T15:18:43;6.27;;;2.53;;
8861;SDS011;4799;50.996;4.754;2023-02-19T15:21:17;4.03;;;2.33;;
8861;SDS011;4799;50.996;4.754;2023-02-19T15:23:48;3.23;;;2.20;;
8861;SDS011;4799;50.996;4.754;2023-02-19T15:26:21;2.47;;;2.00;;
8861;SDS011;4799;50.996;4.754;2023-02-19T15:28:55;2.93;;;1.90;;
8861;SDS011;4799;50.996;4.754;2023-02-19T15:31:25;2.43;;;1.80;;
8861;SDS011;4799;50.996;4.754;2023-02-19T15:33:51;1.93;;;1.50;;
8861;SDS011;4799;50.996;4.754;2023-02-19T15:36:24;2.90;;;1.60;;
8861;SDS011;4799;50.996;4.754;2023-02-19T15:38:54;2.10;;;1.90;;
8861;SDS011;4799;50.996;4.754;2023-02-19T15:41:21;1.87;;;1.63;;
8861;SDS011;4799;50.996;4.754;2023-02-19T15:44:02;2.83;;;1.80;;
8861;SDS011;4799;50.996;4.754;2023-02-19T15:46:42;2.50;;;1.80;;
8861;SDS011;4799;50.996;4.754;2023-02-19T15:49:17;1.97;;;1.80;;
8861;SDS011;4799;50.996;4.754;2023-02-19T15:51:51;2.73;;;1.87;;
8861;SDS011;4799;50.996;4.754;2023-02-19T15:54:26;3.17;;;1.97;;
8861;SDS011;4799;50.996;4.754;2023-02-19T15:57:01;3.37;;;2.43;;
8861;SDS011;4799;50.996;4.754;2023-02-19T15:59:41;3.47;;;2.07;;
8861;SDS011;4799;50.996;4.754;2023-02-19T16:02:12;2.57;;;2.10;;
8861;SDS011;4799;50.996;4.754;2023-02-19T16:04:40;2.90;;;2.00;;
8861;SDS011;4799;50.996;4.754;2023-02-19T16:12:42;3.17;;;2.17;;
8861;SDS011;4799;50.996;4.754;2023-02-19T16:15:17;2.47;;;1.90;;
8861;SDS011;4799;50.996;4.754;2023-02-19T16:17:44;3.27;;;2.20;;
8861;SDS011;4799;50.996;4.754;2023-02-19T16:20:16;2.87;;;2.50;;
8861;SDS011;4799;50.996;4.754;2023-02-19T16:22:45;3.73;;;2.47;;
8861;SDS011;4799;50.996;4.754;2023-02-19T16:30:39;3.07;;;2.50;;
8861;SDS011;4799;50.996;4.754;2023-02-19T16:33:18;4.70;;;2.90;;
8861;SDS011;4799;50.996;4.754;2023-02-19T16:35:57;4.57;;;2.83;;
8861;SDS011;4799;50.996;4.754;2023-02-19T16:38:39;4.60;;;2.80;;
8861;SDS011;4799;50.996;4.754;2023-02-19T16:41:10;4.17;;;3.10;;
8861;SDS011;4799;50.996;4.754;2023-02-19T16:43:37;3.67;;;3.20;;
8861;SDS011;4799;50.996;4.754;2023-02-19T16:46:10;3.93;;;3.20;;
8861;SDS011;4799;50.996;4.754;2023-02-19T16:48:37;5.70;;;3.40;;
8861;SDS011;4799;50.996;4.754;2023-02-19T16:51:04;3.90;;;3.50;;
8861;SDS011;4799;50.996;4.754;2023-02-19T16:53:31;5.80;;;4.00;;
8861;SDS011;4799;50.996;4.754;2023-02-19T16:55:57;7.40;;;5.23;;
8861;SDS011;4799;50.996;4.754;2023-02-19T16:58:23;5.20;;;4.33;;
8861;SDS011;4799;50.996;4.754;2023-02-19T17:00:49;5.57;;;4.30;;
8861;SDS011;4799;50.996;4.754;2023-02-19T17:03:20;5.17;;;4.37;;
8861;SDS011;4799;50.996;4.754;2023-02-19T17:05:48;4.57;;;3.87;;
8861;SDS011;4799;50.996;4.754;2023-02-19T17:11:01;5.17;;;4.67;;
8861;SDS011;4799;50.996;4.754;2023-02-19T17:13:31;5.10;;;4.17;;
8861;SDS011;4799;50.996;4.754;2023-02-19T17:15:57;8.60;;;5.17;;
8861;SDS011;4799;50.996;4.754;2023-02-19T17:18:23;4.77;;;4.00;;
8861;SDS011;4799;50.996;4.754;2023-02-19T17:21:00;5.07;;;4.23;;
8861;SDS011;4799;50.996;4.754;2023-02-19T17:23:26;5.70;;;4.40;;
8861;SDS011;4799;50.996;4.754;2023-02-19T17:25:52;6.40;;;4.60;;
8861;SDS011;4799;50.996;4.754;2023-02-19T17:28:19;4.67;;;4.07;;
8861;SDS011;4799;50.996;4.754;2023-02-19T17:30:44;5.70;;;4.47;;
8861;SDS011;4799;50.996;4.754;2023-02-19T17:33:10;5.03;;;4.33;;
8861;SDS011;4799;50.996;4.754;2023-02-19T17:35:36;5.47;;;4.17;;
8861;SDS011;4799;50.996;4.754;2023-02-19T17:38:02;5.43;;;4.70;;
8861;SDS011;4799;50.996;4.754;2023-02-19T17:40:33;5.53;;;4.73;;
8861;SDS011;4799;50.996;4.754;2023-02-19T17:43:00;7.27;;;4.80;;
8861;SDS011;4799;50.996;4.754;2023-02-19T17:45:26;6.33;;;4.57;;
8861;SDS011;4799;50.996;4.754;2023-02-19T17:47:52;7.23;;;5.30;;
8861;SDS011;4799;50.996;4.754;2023-02-19T17:50:19;11.60;;;8.07;;
8861;SDS011;4799;50.996;4.754;2023-02-19T17:52:47;10.03;;;7.40;;
8861;SDS011;4799;50.996;4.754;2023-02-19T17:55:14;8.97;;;6.40;;
8861;SDS011;4799;50.996;4.754;2023-02-19T17:57:48;6.40;;;5.80;;
8861;SDS011;4799;50.996;4.754;2023-02-19T18:00:16;7.83;;;5.93;;
8861;SDS011;4799;50.996;4.754;2023-02-19T18:02:47;6.83;;;5.90;;
8861;SDS011;4799;50.996;4.754;2023-02-19T18:05:13;9.20;;;6.93;;
8861;SDS011;4799;50.996;4.754;2023-02-19T18:07:39;7.57;;;6.00;;
8861;SDS011;4799;50.996;4.754;2023-02-19T18:10:05;7.10;;;6.10;;
8861;SDS011;4799;50.996;4.754;2023-02-19T18:12:31;7.33;;;6.50;;